createdAt,value
2018-12-06T00:00:27.158Z,8.27
2018-12-06T00:02:56.363Z,7.50
2018-12-06T00:05:25.612Z,7.87
2018-12-06T00:08:05.526Z,7.53
2018-12-06T00:10:34.387Z,7.13
2018-12-06T00:13:03.600Z,7.60
2018-12-06T00:15:32.797Z,7.77
2018-12-06T00:18:01.924Z,7.60
2018-12-06T00:20:31.246Z,9.60
2018-12-06T00:23:00.075Z,8.17
2018-12-06T00:25:29.174Z,7.63
2018-12-06T00:27:58.276Z,6.70
2018-12-06T00:30:35.823Z,7.70
2018-12-06T00:33:05.457Z,7.07
2018-12-06T00:35:34.626Z,7.00
2018-12-06T00:38:03.795Z,6.93
2018-12-06T00:40:33.161Z,6.40
2018-12-06T00:43:02.306Z,7.33
2018-12-06T00:45:31.187Z,7.27
2018-12-06T00:48:00.215Z,7.00
2018-12-06T00:50:29.485Z,7.27
2018-12-06T00:52:58.348Z,6.60
2018-12-06T00:55:27.175Z,7.13
2018-12-06T00:57:56.477Z,7.57
2018-12-06T01:00:25.532Z,7.17
2018-12-06T01:02:54.739Z,7.10
2018-12-06T01:05:23.965Z,7.43
2018-12-06T01:07:53.060Z,7.53
2018-12-06T01:10:21.961Z,7.73
2018-12-06T01:12:50.991Z,7.03
2018-12-06T01:15:19.945Z,6.97
2018-12-06T01:17:49.179Z,7.50
2018-12-06T01:20:18.326Z,7.30
2018-12-06T01:22:47.473Z,7.00
2018-12-06T01:25:16.735Z,7.20
2018-12-06T01:27:45.819Z,6.90
2018-12-06T01:30:14.756Z,6.97
2018-12-06T01:32:43.713Z,7.10
2018-12-06T01:35:12.991Z,7.20
2018-12-06T01:37:42.128Z,7.13
2018-12-06T01:40:11.497Z,6.97
2018-12-06T01:42:40.699Z,7.87
2018-12-06T01:45:09.665Z,7.67
2018-12-06T01:47:38.512Z,7.93
2018-12-06T01:50:07.715Z,7.87
2018-12-06T01:52:36.879Z,7.37
2018-12-06T01:55:06.297Z,6.73
2018-12-06T01:57:35.528Z,7.27
2018-12-06T02:00:05.020Z,6.60
2018-12-06T02:02:34.284Z,7.27
2018-12-06T02:05:03.395Z,7.13
2018-12-06T02:07:32.528Z,7.07
2018-12-06T02:10:01.641Z,7.03
2018-12-06T02:12:30.575Z,7.13
2018-12-06T02:14:59.824Z,7.63
2018-12-06T02:17:29.185Z,6.67
2018-12-06T02:19:58.448Z,7.67
2018-12-06T02:22:27.376Z,7.53
2018-12-06T02:24:56.633Z,7.37
2018-12-06T02:27:25.738Z,7.53
2018-12-06T02:29:54.833Z,7.10
2018-12-06T02:32:24.719Z,8.30
2018-12-06T02:34:53.666Z,7.70
2018-12-06T02:37:22.899Z,7.73
2018-12-06T02:39:51.769Z,8.20
2018-12-06T02:42:20.885Z,8.63
2018-12-06T02:44:50.203Z,6.87
2018-12-06T02:47:19.271Z,7.77
2018-12-06T02:49:48.496Z,7.07
2018-12-06T02:52:17.623Z,7.37
2018-12-06T02:54:46.703Z,7.47
2018-12-06T02:57:15.998Z,7.60
2018-12-06T02:59:45.184Z,7.83
2018-12-06T03:02:14.485Z,8.10
2018-12-06T03:04:43.783Z,7.93
2018-12-06T03:07:12.985Z,7.50
2018-12-06T03:09:42.308Z,7.67
2018-12-06T03:12:11.525Z,7.70
2018-12-06T03:14:40.770Z,7.13
2018-12-06T03:17:09.721Z,7.63
2018-12-06T03:19:38.963Z,7.63
2018-12-06T03:22:08.008Z,7.40
2018-12-06T03:24:37.100Z,7.27
2018-12-06T03:27:06.352Z,7.70
2018-12-06T03:29:35.648Z,7.73
2018-12-06T03:32:04.934Z,7.93
2018-12-06T03:34:33.752Z,7.70
2018-12-06T03:37:02.996Z,10.00
2018-12-06T03:39:31.967Z,9.10
2018-12-06T03:42:01.208Z,9.43
2018-12-06T03:44:32.501Z,10.77
2018-12-06T03:47:01.757Z,10.17
2018-12-06T03:49:30.903Z,9.13
2018-12-06T03:51:59.799Z,8.30
2018-12-06T03:54:28.712Z,7.40
2018-12-06T03:56:57.755Z,8.13
2018-12-06T03:59:26.766Z,7.80
2018-12-06T04:01:56.016Z,8.33
2018-12-06T04:04:25.224Z,7.80
2018-12-06T04:06:54.440Z,8.40
2018-12-06T04:09:23.666Z,7.43
2018-12-06T04:11:52.768Z,8.47
2018-12-06T04:14:21.907Z,7.87
2018-12-06T04:16:51.012Z,8.70
2018-12-06T04:19:20.191Z,7.80
2018-12-06T04:21:49.309Z,8.40
2018-12-06T04:24:18.396Z,8.33
2018-12-06T04:26:47.591Z,8.43
2018-12-06T04:29:16.541Z,12.53
2018-12-06T04:31:45.452Z,16.70
2018-12-06T04:34:14.629Z,19.63
2018-12-06T04:36:43.813Z,12.23
2018-12-06T04:39:12.764Z,11.03
2018-12-06T04:41:41.944Z,9.43
2018-12-06T04:44:11.057Z,9.40
2018-12-06T04:46:40.140Z,10.73
2018-12-06T04:49:41.219Z,9.87
2018-12-06T04:52:10.343Z,8.80
2018-12-06T04:54:39.531Z,9.30
2018-12-06T04:57:08.556Z,9.77
2018-12-06T04:59:37.712Z,10.10
2018-12-06T05:02:06.996Z,10.17
2018-12-06T05:04:36.479Z,11.77
2018-12-06T05:07:05.612Z,12.03
2018-12-06T05:09:34.519Z,11.33
2018-12-06T05:12:03.748Z,12.23
2018-12-06T05:14:32.752Z,12.40
2018-12-06T05:17:01.887Z,10.57
2018-12-06T05:19:30.656Z,11.37
2018-12-06T05:21:59.763Z,10.13
2018-12-06T05:24:28.846Z,10.90
2018-12-06T05:26:58.158Z,15.37
2018-12-06T05:29:27.315Z,13.00
2018-12-06T05:31:56.400Z,13.33
2018-12-06T05:34:25.614Z,14.30
2018-12-06T05:36:54.735Z,18.70
2018-12-06T05:39:24.020Z,17.37
2018-12-06T05:41:53.023Z,13.47
2018-12-06T05:44:22.096Z,11.77
2018-12-06T05:46:51.200Z,12.13
2018-12-06T05:49:20.397Z,11.30
2018-12-06T05:51:49.481Z,12.67
2018-12-06T05:54:18.510Z,13.67
2018-12-06T05:56:47.663Z,13.10
2018-12-06T05:59:16.592Z,15.50
2018-12-06T06:01:45.766Z,14.83
2018-12-06T06:04:14.692Z,16.80
2018-12-06T06:06:43.884Z,15.27
2018-12-06T06:09:13.096Z,13.87
2018-12-06T06:11:42.004Z,12.70
2018-12-06T06:14:11.203Z,14.57
2018-12-06T06:16:40.138Z,13.83
2018-12-06T06:19:09.311Z,14.27
2018-12-06T06:21:38.496Z,14.97
2018-12-06T06:24:07.618Z,16.67
2018-12-06T06:26:36.787Z,16.37
2018-12-06T06:29:05.900Z,18.27
2018-12-06T06:31:35.036Z,19.00
2018-12-06T06:34:03.883Z,18.93
2018-12-06T06:36:33.022Z,13.57
2018-12-06T06:39:01.844Z,10.70
2018-12-06T06:41:31.063Z,11.37
2018-12-06T06:43:59.783Z,9.47
2018-12-06T06:46:28.687Z,9.93
2018-12-06T06:48:57.879Z,11.90
2018-12-06T06:51:27.122Z,12.80
2018-12-06T06:53:56.331Z,12.13
2018-12-06T06:56:25.438Z,10.20
2018-12-06T06:58:54.403Z,9.20
2018-12-06T07:01:23.299Z,9.07
2018-12-06T07:03:52.259Z,9.50
2018-12-06T07:06:21.542Z,15.50
2018-12-06T07:08:50.737Z,34.13
2018-12-06T07:11:19.979Z,17.93
2018-12-06T07:13:49.227Z,57.13
2018-12-06T07:16:18.431Z,23.00
2018-12-06T07:18:47.650Z,19.13
2018-12-06T07:21:16.790Z,20.10
2018-12-06T07:23:45.669Z,40.20
2018-12-06T07:26:14.848Z,34.43
2018-12-06T07:28:44.253Z,13.60
2018-12-06T07:31:13.451Z,18.97
2018-12-06T07:33:42.414Z,41.70
2018-12-06T07:36:11.382Z,22.17
2018-12-06T07:38:40.588Z,28.60
2018-12-06T07:41:09.445Z,21.63
2018-12-06T07:43:38.574Z,18.60
2018-12-06T07:49:00.174Z,28.33
2018-12-06T07:51:28.995Z,16.13
2018-12-06T07:53:58.159Z,18.40
2018-12-06T07:56:26.964Z,24.33
2018-12-06T07:58:55.799Z,22.43
2018-12-06T08:01:24.930Z,16.70
2018-12-06T08:03:54.160Z,13.97
2018-12-06T08:06:23.121Z,15.93
2018-12-06T08:08:52.204Z,24.30
2018-12-06T08:11:21.052Z,26.03
2018-12-06T08:13:50.228Z,34.97
2018-12-06T08:16:19.567Z,41.30
2018-12-06T08:18:48.619Z,49.43
2018-12-06T08:21:17.527Z,27.20
2018-12-06T08:23:46.874Z,32.40
2018-12-06T08:26:15.952Z,16.90
2018-12-06T08:28:45.112Z,11.80
2018-12-06T08:31:14.271Z,12.07
2018-12-06T08:33:43.455Z,15.87
2018-12-06T08:36:12.550Z,15.73
2018-12-06T08:38:41.643Z,17.43
2018-12-06T08:41:10.623Z,18.13
2018-12-06T08:43:39.771Z,21.63
2018-12-06T08:46:08.679Z,19.70
2018-12-06T08:48:37.860Z,24.10
2018-12-06T08:51:07.219Z,18.97
2018-12-06T08:53:36.030Z,31.77
2018-12-06T08:56:05.211Z,22.33
2018-12-06T08:58:34.379Z,24.57
2018-12-06T09:01:03.530Z,21.67
2018-12-06T09:03:32.524Z,16.40
2018-12-06T09:06:01.828Z,20.60
2018-12-06T09:08:30.933Z,18.00
2018-12-06T09:10:59.999Z,22.83
2018-12-06T09:13:29.144Z,21.83
2018-12-06T09:15:57.987Z,15.20
2018-12-06T09:18:27.104Z,16.10
2018-12-06T09:20:56.196Z,13.97
2018-12-06T09:23:25.291Z,15.17
2018-12-06T09:25:54.031Z,13.97
2018-12-06T09:28:23.340Z,12.60
2018-12-06T09:30:52.376Z,27.00
2018-12-06T09:33:21.536Z,12.80
2018-12-06T09:35:50.379Z,11.17
2018-12-06T09:38:19.540Z,11.27
2018-12-06T09:40:48.804Z,13.07
2018-12-06T09:43:17.829Z,16.47
2018-12-06T09:45:47.055Z,11.57
2018-12-06T09:48:16.238Z,13.37
2018-12-06T09:50:45.424Z,14.40
2018-12-06T09:53:14.669Z,13.10
2018-12-06T09:55:43.448Z,12.00
2018-12-06T09:58:12.482Z,14.27
2018-12-06T10:00:41.293Z,26.03
2018-12-06T10:03:10.197Z,15.33
2018-12-06T10:05:39.176Z,10.47
2018-12-06T10:08:08.053Z,14.63
2018-12-06T10:10:37.003Z,11.53
2018-12-06T10:13:05.923Z,13.53
2018-12-06T10:15:34.886Z,12.07
2018-12-06T10:18:03.724Z,15.17
2018-12-06T10:20:32.680Z,13.00
2018-12-06T10:23:01.507Z,10.93
2018-12-06T10:25:30.374Z,10.67
2018-12-06T10:27:59.198Z,14.33
2018-12-06T10:30:28.049Z,32.47
2018-12-06T10:32:56.967Z,20.50
2018-12-06T10:35:25.932Z,13.13
2018-12-06T10:37:54.739Z,16.00
2018-12-06T10:40:23.610Z,12.63
2018-12-06T10:42:52.540Z,17.80
2018-12-06T10:45:21.458Z,169.23
2018-12-06T10:47:50.574Z,25.13
2018-12-06T10:50:19.412Z,13.47
2018-12-06T10:52:48.381Z,14.37
2018-12-06T10:55:18.352Z,17.03
2018-12-06T10:57:47.476Z,13.20
2018-12-06T11:00:21.371Z,8.83
2018-12-06T11:02:52.496Z,10.53
2018-12-06T11:05:21.651Z,11.20
2018-12-06T11:07:50.906Z,8.77
2018-12-06T11:10:19.744Z,16.40
2018-12-06T11:12:48.741Z,12.47
2018-12-06T11:15:17.575Z,12.60
2018-12-06T11:17:46.482Z,19.20
2018-12-06T11:20:15.472Z,10.97
2018-12-06T11:22:44.466Z,9.67
2018-12-06T11:25:13.480Z,9.93
2018-12-06T11:27:42.320Z,9.13
2018-12-06T11:30:11.636Z,10.30
2018-12-06T11:32:40.525Z,9.80
2018-12-06T11:35:09.455Z,19.03
2018-12-06T11:37:38.288Z,16.20
2018-12-06T11:40:07.258Z,17.03
2018-12-06T11:42:36.162Z,16.27
2018-12-06T11:45:05.906Z,12.43
2018-12-06T11:47:34.797Z,9.53
2018-12-06T11:50:03.687Z,10.90
2018-12-06T11:52:32.544Z,11.20
2018-12-06T11:55:01.468Z,12.00
2018-12-06T11:57:30.427Z,12.97
2018-12-06T11:59:59.269Z,11.17
2018-12-06T12:02:28.167Z,22.37
2018-12-06T12:04:57.026Z,22.27
2018-12-06T12:07:25.941Z,20.37
2018-12-06T12:09:54.854Z,12.47
2018-12-06T12:12:23.727Z,15.40
2018-12-06T12:14:52.736Z,23.93
2018-12-06T12:17:21.590Z,13.67
2018-12-06T12:19:50.467Z,40.13
2018-12-06T12:22:19.461Z,34.30
2018-12-06T12:24:48.442Z,30.73
2018-12-06T12:27:17.359Z,23.40
2018-12-06T12:29:46.364Z,16.87
2018-12-06T12:32:15.223Z,14.77
2018-12-06T12:34:44.012Z,14.60
2018-12-06T12:37:12.867Z,18.97
2018-12-06T12:39:41.827Z,17.93
2018-12-06T12:42:10.863Z,16.93
2018-12-06T12:44:39.775Z,17.70
2018-12-06T12:47:08.706Z,14.50
2018-12-06T12:49:37.556Z,13.20
2018-12-06T12:52:06.369Z,18.20
2018-12-06T12:54:35.541Z,13.93
2018-12-06T12:57:04.417Z,17.67
2018-12-06T12:59:33.362Z,26.60
2018-12-06T13:02:02.349Z,18.30
2018-12-06T13:04:31.228Z,28.67
2018-12-06T13:07:12.175Z,19.00
2018-12-06T13:09:41.092Z,21.70
2018-12-06T13:12:09.910Z,17.00
2018-12-06T13:14:38.884Z,25.73
2018-12-06T13:17:07.755Z,30.17
2018-12-06T13:19:36.726Z,32.57
2018-12-06T13:22:05.617Z,25.77
2018-12-06T13:24:34.481Z,25.60
2018-12-06T13:27:03.499Z,41.93
2018-12-06T13:29:32.469Z,38.80
2018-12-06T13:32:01.328Z,29.60
2018-12-06T13:34:30.167Z,21.90
2018-12-06T13:36:58.954Z,24.23
2018-12-06T13:39:27.937Z,26.77
2018-12-06T13:41:56.750Z,25.47
2018-12-06T13:44:25.665Z,23.93
2018-12-06T13:46:54.592Z,19.73
2018-12-06T13:49:23.405Z,19.40
2018-12-06T13:51:52.416Z,34.73
2018-12-06T13:54:26.975Z,32.70
2018-12-06T13:56:52.711Z,38.13
2018-12-06T13:59:21.525Z,41.80
2018-12-06T14:01:50.488Z,41.60
2018-12-06T14:04:19.407Z,31.17
2018-12-06T14:06:48.171Z,21.60
2018-12-06T14:09:17.264Z,22.80
2018-12-06T14:11:46.572Z,20.10
2018-12-06T14:14:15.531Z,18.47
2018-12-06T14:16:44.780Z,27.90
2018-12-06T14:19:13.963Z,66.00
2018-12-06T14:21:43.252Z,54.77
2018-12-06T14:24:12.469Z,45.97
2018-12-06T14:26:41.742Z,44.30
2018-12-06T14:29:10.500Z,42.23
2018-12-06T14:31:39.693Z,41.17
2018-12-06T14:34:08.871Z,139.33
2018-12-06T14:36:38.108Z,24.07
2018-12-06T14:39:09.564Z,25.13
2018-12-06T14:41:38.775Z,35.60
2018-12-06T14:44:07.889Z,49.57
2018-12-06T14:46:37.003Z,31.17
2018-12-06T14:49:05.898Z,30.50
2018-12-06T14:51:35.104Z,22.50
2018-12-06T14:54:04.552Z,34.27
2018-12-06T14:56:33.695Z,53.50
2018-12-06T14:59:02.839Z,57.97
2018-12-06T15:01:31.908Z,53.43
2018-12-06T15:04:01.263Z,46.70
2018-12-06T15:06:37.382Z,33.17
2018-12-06T15:09:01.342Z,124.20
2018-12-06T15:11:30.378Z,24.90
2018-12-06T15:13:59.507Z,43.33
2018-12-06T15:16:28.755Z,52.60
2018-12-06T15:18:57.904Z,57.73
2018-12-06T15:21:26.857Z,71.40
2018-12-06T15:23:56.053Z,50.07
2018-12-06T15:26:25.218Z,47.13
2018-12-06T15:28:54.297Z,103.23
2018-12-06T15:31:23.471Z,53.33
2018-12-06T15:33:52.455Z,29.10
2018-12-06T15:36:21.341Z,42.43
2018-12-06T15:38:50.304Z,33.83
2018-12-06T15:41:19.367Z,32.53
2018-12-06T15:43:48.484Z,31.00
2018-12-06T15:49:00.787Z,30.60
2018-12-06T15:51:29.859Z,34.03
2018-12-06T15:53:59.019Z,53.43
2018-12-06T15:56:28.146Z,50.20
2018-12-06T15:58:57.168Z,51.87
2018-12-06T16:01:26.249Z,47.80
2018-12-06T16:03:55.280Z,74.90
2018-12-06T16:06:24.480Z,83.07
2018-12-06T16:08:53.728Z,81.93
2018-12-06T16:11:22.868Z,69.37
2018-12-06T16:13:52.029Z,62.47
2018-12-06T16:16:21.368Z,64.70
2018-12-06T16:18:50.954Z,56.47
2018-12-06T16:21:20.124Z,55.83
2018-12-06T16:23:49.239Z,88.13
2018-12-06T16:26:18.416Z,68.63
2018-12-06T16:28:47.603Z,51.53
2018-12-06T16:31:16.763Z,51.47
2018-12-06T16:33:45.999Z,41.67
2018-12-06T16:36:15.214Z,54.43
2018-12-06T16:38:43.962Z,46.97
2018-12-06T16:41:13.169Z,45.03
2018-12-06T16:43:42.307Z,45.90
2018-12-06T16:46:11.884Z,42.90
2018-12-06T16:48:41.096Z,49.63
2018-12-06T16:51:10.183Z,43.63
2018-12-06T16:53:38.995Z,53.10
2018-12-06T16:56:08.217Z,45.93
2018-12-06T16:58:37.250Z,41.07
2018-12-06T17:01:06.496Z,37.30
2018-12-06T17:03:35.295Z,34.03
2018-12-06T17:06:04.337Z,32.23
2018-12-06T17:08:33.488Z,49.77
2018-12-06T17:11:02.447Z,111.73
2018-12-06T17:13:31.456Z,132.23
2018-12-06T17:16:00.540Z,88.77
2018-12-06T17:18:29.767Z,49.17
2018-12-06T17:20:59.051Z,43.00
2018-12-06T17:23:28.256Z,36.30
2018-12-06T17:25:57.413Z,33.70
2018-12-06T17:28:26.309Z,35.73
2018-12-06T17:30:55.387Z,31.33
2018-12-06T17:33:24.583Z,30.53
2018-12-06T17:35:53.748Z,77.10
2018-12-06T17:38:22.971Z,62.27
2018-12-06T17:40:52.081Z,65.10
2018-12-06T17:43:20.918Z,61.10
2018-12-06T17:45:50.005Z,52.67
2018-12-06T17:48:18.982Z,46.50
2018-12-06T17:50:47.881Z,43.77
2018-12-06T17:53:17.135Z,41.67
2018-12-06T17:55:56.547Z,59.13
2018-12-06T17:58:25.566Z,59.23
2018-12-06T18:00:55.148Z,43.27
2018-12-06T18:03:25.470Z,35.83
2018-12-06T18:05:54.332Z,38.13
2018-12-06T18:08:23.157Z,46.07
2018-12-06T18:10:52.356Z,45.67
2018-12-06T18:13:21.491Z,46.37
2018-12-06T18:15:51.463Z,44.13
2018-12-06T18:18:20.646Z,44.33
2018-12-06T18:20:49.990Z,51.50
2018-12-06T18:23:19.045Z,44.47
2018-12-06T18:25:48.162Z,40.73
2018-12-06T18:28:17.217Z,46.17
2018-12-06T18:30:47.099Z,49.70
2018-12-06T18:33:16.503Z,46.20
2018-12-06T18:35:45.667Z,61.30
2018-12-06T18:38:14.926Z,103.07
2018-12-06T18:40:44.005Z,97.47
2018-12-06T18:43:12.924Z,61.50
2018-12-06T18:45:41.743Z,35.50
2018-12-06T18:48:10.703Z,35.63
2018-12-06T18:50:39.632Z,34.93
2018-12-06T18:53:08.484Z,28.60
2018-12-06T18:55:37.715Z,31.97
2018-12-06T18:58:06.854Z,44.20
2018-12-06T19:00:36.073Z,54.07
2018-12-06T19:03:05.379Z,73.87
2018-12-06T19:05:34.408Z,88.73
2018-12-06T19:08:03.292Z,43.57
2018-12-06T19:10:32.494Z,41.00
2018-12-06T19:13:01.580Z,39.93
2018-12-06T19:15:30.856Z,36.63
2018-12-06T19:18:00.232Z,46.53
2018-12-06T19:20:29.290Z,62.60
2018-12-06T19:22:58.437Z,48.73
2018-12-06T19:25:27.253Z,49.40
2018-12-06T19:27:56.453Z,54.20
2018-12-06T19:30:25.812Z,52.60
2018-12-06T19:32:57.870Z,63.77
2018-12-06T19:35:25.941Z,58.07
2018-12-06T19:37:55.043Z,55.93
2018-12-06T19:40:23.972Z,56.83
2018-12-06T19:42:52.942Z,56.50
2018-12-06T19:45:21.801Z,57.13
2018-12-06T19:47:50.855Z,52.90
2018-12-06T19:50:19.956Z,54.70
2018-12-06T19:52:49.111Z,50.57
2018-12-06T19:55:19.423Z,43.50
2018-12-06T19:57:48.710Z,44.13
2018-12-06T20:00:18.124Z,67.60
2018-12-06T20:02:46.967Z,56.13
2018-12-06T20:05:15.886Z,57.73
2018-12-06T20:07:44.779Z,48.57
2018-12-06T20:10:14.211Z,41.83
2018-12-06T20:12:43.074Z,38.13
2018-12-06T20:15:11.931Z,47.37
2018-12-06T20:17:41.580Z,68.27
2018-12-06T20:20:10.372Z,56.57
2018-12-06T20:22:39.348Z,50.30
2018-12-06T20:25:08.367Z,53.43
2018-12-06T20:27:37.274Z,43.60
2018-12-06T20:30:06.651Z,65.57
2018-12-06T20:32:35.753Z,69.50
2018-12-06T20:35:05.078Z,69.40
2018-12-06T20:37:33.940Z,129.57
2018-12-06T20:40:02.911Z,58.13
2018-12-06T20:42:31.715Z,61.43
2018-12-06T20:45:00.610Z,64.37
2018-12-06T20:47:29.602Z,62.23
2018-12-06T20:49:58.363Z,49.17
2018-12-06T20:52:27.245Z,47.43
2018-12-06T20:54:56.067Z,51.70
2018-12-06T20:57:24.919Z,48.47
2018-12-06T20:59:53.743Z,48.43
2018-12-06T21:02:22.654Z,52.97
2018-12-06T21:04:51.629Z,57.67
2018-12-06T21:07:20.422Z,37.40
2018-12-06T21:09:49.229Z,33.20
2018-12-06T21:12:18.091Z,30.67
2018-12-06T21:14:46.959Z,29.83
2018-12-06T21:17:15.873Z,29.97
2018-12-06T21:19:44.744Z,31.07
2018-12-06T21:22:13.695Z,30.83
2018-12-06T21:24:42.679Z,31.93
2018-12-06T21:27:11.545Z,31.63
2018-12-06T21:29:40.396Z,31.20
2018-12-06T21:32:09.272Z,33.40
2018-12-06T21:34:38.284Z,33.63
2018-12-06T21:37:07.093Z,35.07
2018-12-06T21:39:36.011Z,34.33
2018-12-06T21:42:04.996Z,37.37
2018-12-06T21:44:33.856Z,36.80
2018-12-06T21:47:02.651Z,36.50
2018-12-06T21:49:31.647Z,39.07
2018-12-06T21:52:00.637Z,39.03
2018-12-06T21:54:29.495Z,37.23
2018-12-06T21:56:58.273Z,35.00
2018-12-06T21:59:27.139Z,37.10
2018-12-06T22:02:05.720Z,34.10
2018-12-06T22:04:34.583Z,34.57
2018-12-06T22:07:03.528Z,34.53
2018-12-06T22:09:32.410Z,34.00
2018-12-06T22:12:01.233Z,32.60
2018-12-06T22:14:30.068Z,32.73
2018-12-06T22:16:58.862Z,32.90
2018-12-06T22:19:27.764Z,33.53
2018-12-06T22:21:56.654Z,31.40
2018-12-06T22:24:25.430Z,30.10
2018-12-06T22:26:54.334Z,29.57
2018-12-06T22:29:23.078Z,29.27
2018-12-06T22:31:51.944Z,30.40
2018-12-06T22:34:20.695Z,28.47
2018-12-06T22:36:49.644Z,29.70
2018-12-06T22:39:18.632Z,30.20
2018-12-06T22:41:47.451Z,28.10
2018-12-06T22:44:16.346Z,28.93
2018-12-06T22:46:45.145Z,29.67
2018-12-06T22:49:14.111Z,28.20
2018-12-06T22:51:42.966Z,29.20
2018-12-06T22:54:12.007Z,29.87
2018-12-06T22:56:40.841Z,29.00
2018-12-06T22:59:09.778Z,29.87
2018-12-06T23:01:40.981Z,28.23
2018-12-06T23:04:10.247Z,28.73
2018-12-06T23:06:39.301Z,27.17
2018-12-06T23:09:09.826Z,30.50
2018-12-06T23:11:39.448Z,29.83
2018-12-06T23:14:08.399Z,28.60
2018-12-06T23:16:37.534Z,29.00
2018-12-06T23:19:06.630Z,29.73
2018-12-06T23:21:35.519Z,29.23
2018-12-06T23:24:04.410Z,29.33
2018-12-06T23:26:33.295Z,29.67
2018-12-06T23:29:02.111Z,29.10
2018-12-06T23:31:30.948Z,28.87
2018-12-06T23:33:59.842Z,28.63
2018-12-06T23:36:28.719Z,28.73
2018-12-06T23:38:57.567Z,28.77
2018-12-06T23:41:26.536Z,27.73
2018-12-06T23:43:55.373Z,30.53
2018-12-06T23:46:24.316Z,27.90
2018-12-06T23:48:53.107Z,28.10
2018-12-06T23:51:40.119Z,29.70
2018-12-06T23:54:08.927Z,28.73
2018-12-06T23:56:37.779Z,28.93
2018-12-06T23:59:06.592Z,28.93
